createdAt,value
2018-10-18T00:01:21.989Z,99617.76
2018-10-18T00:03:50.528Z,99616.17
2018-10-18T00:06:19.465Z,99614.02
2018-10-18T00:08:48.090Z,99616.61
2018-10-18T00:11:16.620Z,99618.44
2018-10-18T00:13:45.175Z,99609.53
2018-10-18T00:16:13.705Z,99623.32
2018-10-18T00:18:42.329Z,99614.89
2018-10-18T00:21:10.984Z,99619.38
2018-10-18T00:23:39.565Z,99617.80
2018-10-18T00:26:08.121Z,99612.11
2018-10-18T00:28:36.721Z,99619.42
2018-10-18T00:31:05.353Z,99615.69
2018-10-18T00:33:33.948Z,99615.16
2018-10-18T00:36:02.528Z,99613.30
2018-10-18T00:38:31.377Z,99614.81
2018-10-18T00:40:59.972Z,99621.55
2018-10-18T00:43:28.533Z,99614.55
2018-10-18T00:45:57.128Z,99611.52
2018-10-18T00:48:25.701Z,99615.29
2018-10-18T00:50:54.285Z,99612.63
2018-10-18T00:53:22.853Z,99609.00
2018-10-18T00:55:51.464Z,99606.63
2018-10-18T00:58:20.019Z,99610.80
2018-10-18T01:00:48.881Z,99611.70
2018-10-18T01:03:17.431Z,99612.82
2018-10-18T01:05:46.021Z,99616.14
2018-10-18T01:08:14.799Z,99610.05
2018-10-18T01:10:43.324Z,99616.05
2018-10-18T01:13:11.885Z,99607.75
2018-10-18T01:15:40.498Z,99610.41
2018-10-18T01:18:09.394Z,99605.16
2018-10-18T01:20:37.925Z,99607.07
2018-10-18T01:23:07.236Z,99606.88
2018-10-18T01:25:35.789Z,99607.15
2018-10-18T01:28:04.655Z,99602.58
2018-10-18T01:30:33.205Z,99599.44
2018-10-18T01:33:01.733Z,99601.23
2018-10-18T01:35:30.341Z,99602.78
2018-10-18T01:37:58.877Z,99603.23
2018-10-18T01:40:27.453Z,99605.71
2018-10-18T01:42:55.974Z,99604.25
2018-10-18T01:45:24.552Z,99603.39
2018-10-18T01:47:53.183Z,99603.02
2018-10-18T01:50:21.717Z,99596.86
2018-10-18T01:52:50.254Z,99600.09
2018-10-18T01:55:18.825Z,99597.73
2018-10-18T01:57:47.678Z,99601.59
2018-10-18T02:00:16.284Z,99593.59
2018-10-18T02:02:44.800Z,99593.63
2018-10-18T02:05:13.380Z,99605.55
2018-10-18T02:07:41.944Z,99598.67
2018-10-18T02:10:10.501Z,99603.13
2018-10-18T02:12:39.053Z,99596.34
2018-10-18T02:15:09.858Z,99605.52
2018-10-18T02:17:38.412Z,99601.34
2018-10-18T02:20:07.620Z,99599.74
2018-10-18T02:22:36.275Z,99594.50
2018-10-18T02:25:05.447Z,99601.77
2018-10-18T02:27:34.264Z,99595.73
2018-10-18T02:30:02.863Z,99600.06
2018-10-18T02:32:31.921Z,99598.22
2018-10-18T02:35:00.472Z,99593.59
2018-10-18T02:37:29.068Z,99591.52
2018-10-18T02:39:57.623Z,99594.69
2018-10-18T02:42:26.215Z,99589.86
2018-10-18T02:44:54.773Z,99591.88
2018-10-18T02:47:23.368Z,99583.87
2018-10-18T02:49:51.918Z,99582.84
2018-10-18T02:52:20.509Z,99583.84
2018-10-18T02:54:49.056Z,99583.39
2018-10-18T02:57:17.629Z,99579.69
2018-10-18T02:59:46.174Z,99586.24
2018-10-18T03:02:14.772Z,99580.76
2018-10-18T03:04:43.313Z,99582.86
2018-10-18T03:07:11.921Z,99592.18
2018-10-18T03:09:40.469Z,99590.95
2018-10-18T03:12:09.089Z,99592.56
2018-10-18T03:14:37.925Z,99588.23
2018-10-18T03:17:06.666Z,99591.19
2018-10-18T03:19:35.242Z,99594.34
2018-10-18T03:22:03.829Z,99598.41
2018-10-18T03:24:32.617Z,99601.34
2018-10-18T03:27:01.145Z,99596.80
2018-10-18T03:29:29.701Z,99596.70
2018-10-18T03:31:58.241Z,99602.05
2018-10-18T03:34:26.810Z,99600.30
2018-10-18T03:36:55.349Z,99605.74
2018-10-18T03:39:23.916Z,99601.72
2018-10-18T03:41:52.470Z,99612.43
2018-10-18T03:44:21.026Z,99605.79
2018-10-18T03:46:49.569Z,99604.27
2018-10-18T03:49:18.138Z,99603.94
2018-10-18T03:51:46.753Z,99602.77
2018-10-18T03:54:15.338Z,99611.82
2018-10-18T03:56:43.858Z,99614.06
2018-10-18T03:59:12.416Z,99618.29
2018-10-18T04:01:40.953Z,99622.15
2018-10-18T04:04:09.573Z,99618.49
2018-10-18T04:06:38.125Z,99612.59
2018-10-18T04:09:08.576Z,99617.12
2018-10-18T04:11:37.125Z,99618.37
2018-10-18T04:14:05.943Z,99621.23
2018-10-18T04:16:34.489Z,99614.44
2018-10-18T04:19:03.093Z,99617.89
2018-10-18T04:21:31.904Z,99614.19
2018-10-18T04:24:00.468Z,99610.34
2018-10-18T04:26:29.008Z,99608.44
2018-10-18T04:28:57.568Z,99617.50
2018-10-18T04:31:26.164Z,99612.12
2018-10-18T04:33:54.744Z,99617.06
2018-10-18T04:36:23.816Z,99618.30
2018-10-18T04:38:52.829Z,99616.66
2018-10-18T04:41:21.859Z,99622.98
2018-10-18T04:43:51.104Z,99627.02
2018-10-18T04:46:20.133Z,99627.09
2018-10-18T04:48:50.894Z,99627.27
2018-10-18T04:51:19.487Z,99633.81
2018-10-18T04:53:48.044Z,99626.52
2018-10-18T04:56:16.697Z,99631.09
2018-10-18T04:58:45.252Z,99630.95
2018-10-18T05:01:13.931Z,99635.75
2018-10-18T05:03:45.916Z,99634.50
2018-10-18T05:06:14.617Z,99638.11
2018-10-18T05:08:43.578Z,99637.58
2018-10-18T05:11:12.186Z,99637.42
2018-10-18T05:13:40.897Z,99640.79
2018-10-18T05:16:09.661Z,99637.56
2018-10-18T05:18:38.905Z,99641.06
2018-10-18T05:21:07.852Z,99648.39
2018-10-18T05:23:36.563Z,99643.58
2018-10-18T05:26:06.244Z,99642.11
2018-10-18T05:28:34.860Z,99642.80
2018-10-18T05:31:03.481Z,99653.66
2018-10-18T05:33:32.253Z,99652.83
2018-10-18T05:36:00.925Z,99652.02
2018-10-18T05:38:29.738Z,99657.72
2018-10-18T05:40:58.320Z,99661.59
2018-10-18T05:43:27.317Z,99662.73
2018-10-18T05:45:56.477Z,99669.05
2018-10-18T05:48:25.353Z,99672.61
2018-10-18T05:50:53.973Z,99666.70
2018-10-18T05:53:22.596Z,99668.59
2018-10-18T05:55:51.133Z,99673.78
2018-10-18T05:58:19.668Z,99687.80
2018-10-18T06:00:48.257Z,99686.32
2018-10-18T06:03:16.912Z,99690.45
2018-10-18T06:05:45.816Z,99695.66
2018-10-18T06:08:14.458Z,99704.91
2018-10-18T06:10:54.229Z,99702.78
2018-10-18T06:13:22.782Z,99693.94
2018-10-18T06:15:51.372Z,99700.20
2018-10-18T06:18:20.029Z,99710.13
2018-10-18T06:20:48.617Z,99713.84
2018-10-18T06:23:17.204Z,99723.84
2018-10-18T06:25:45.776Z,99717.92
2018-10-18T06:28:14.331Z,99728.75
2018-10-18T06:30:42.911Z,99728.48
2018-10-18T06:33:11.531Z,99724.34
2018-10-18T06:35:40.115Z,99721.67
2018-10-18T06:38:08.676Z,99729.53
2018-10-18T06:40:37.253Z,99733.09
2018-10-18T06:43:05.909Z,99734.05
2018-10-18T06:45:34.508Z,99736.86
2018-10-18T06:48:03.112Z,99730.80
2018-10-18T06:50:31.693Z,99735.22
2018-10-18T06:53:00.245Z,99736.10
2018-10-18T06:55:28.827Z,99737.02
2018-10-18T06:57:57.395Z,99740.48
2018-10-18T07:00:26.297Z,99746.30
2018-10-18T07:02:54.937Z,99742.12
2018-10-18T07:05:23.704Z,99750.05
2018-10-18T07:07:52.457Z,99749.36
2018-10-18T07:10:21.291Z,99749.28
2018-10-18T07:12:50.100Z,99753.23
2018-10-18T07:15:18.762Z,99757.34
2018-10-18T07:17:47.610Z,99759.49
2018-10-18T07:20:16.357Z,99758.44
2018-10-18T07:22:45.080Z,99754.75
2018-10-18T07:25:15.136Z,99760.55
2018-10-18T07:27:44.165Z,99768.77
2018-10-18T07:30:14.257Z,99765.55
2018-10-18T07:32:43.172Z,99758.14
2018-10-18T07:35:13.088Z,99757.52
2018-10-18T07:37:41.807Z,99762.44
2018-10-18T07:40:13.478Z,99759.95
2018-10-18T07:42:42.208Z,99767.32
2018-10-18T07:45:12.075Z,99765.22
2018-10-18T07:47:40.951Z,99771.78
2018-10-18T07:50:10.222Z,99774.97
2018-10-18T07:52:38.948Z,99782.95
2018-10-18T07:55:08.417Z,99780.42
2018-10-18T07:57:37.209Z,99780.37
2018-10-18T08:00:11.363Z,99776.05
2018-10-18T08:02:40.241Z,99779.61
2018-10-18T08:05:09.395Z,99779.11
2018-10-18T08:07:38.348Z,99775.48
2018-10-18T08:10:10.702Z,99779.30
2018-10-18T08:12:39.506Z,99779.13
2018-10-18T08:15:09.364Z,99775.09
2018-10-18T08:17:37.961Z,99779.09
2018-10-18T08:20:07.376Z,99768.28
2018-10-18T08:22:36.039Z,99773.19
2018-10-18T08:25:04.946Z,99768.08
2018-10-18T08:27:33.772Z,99772.50
2018-10-18T08:30:02.596Z,99768.16
2018-10-18T08:32:31.181Z,99771.86
2018-10-18T08:34:59.732Z,99773.54
2018-10-18T08:37:28.346Z,99774.44
2018-10-18T08:39:57.237Z,99781.38
2018-10-18T08:42:25.865Z,99779.34
2018-10-18T08:44:54.608Z,99786.45
2018-10-18T08:47:23.212Z,99786.63
2018-10-18T08:49:51.853Z,99788.19
2018-10-18T08:52:20.437Z,99796.91
2018-10-18T08:54:49.021Z,99788.80
2018-10-18T08:57:17.657Z,99789.57
2018-10-18T08:59:46.201Z,99797.55
2018-10-18T09:02:14.776Z,99800.44
2018-10-18T09:04:43.348Z,99801.64
2018-10-18T09:07:11.979Z,99805.70
2018-10-18T09:09:40.513Z,99806.33
2018-10-18T09:12:09.112Z,99801.95
2018-10-18T09:14:37.704Z,99802.20
2018-10-18T09:17:06.329Z,99800.73
2018-10-18T09:19:35.029Z,99800.89
2018-10-18T09:22:03.619Z,99797.99
2018-10-18T09:24:32.148Z,99796.86
2018-10-18T09:27:00.729Z,99797.97
2018-10-18T09:29:29.313Z,99795.32
2018-10-18T09:31:57.920Z,99789.94
2018-10-18T09:34:26.489Z,99784.36
2018-10-18T09:36:55.082Z,99791.70
2018-10-18T09:39:23.637Z,99780.23
2018-10-18T09:41:52.205Z,99784.48
2018-10-18T09:44:20.816Z,99780.27
2018-10-18T09:46:49.349Z,99783.03
2018-10-18T09:49:17.970Z,99784.73
2018-10-18T09:51:46.460Z,99788.91
2018-10-18T09:54:15.264Z,99785.66
2018-10-18T09:56:44.142Z,99791.69
2018-10-18T09:59:12.901Z,99788.77
2018-10-18T10:01:46.824Z,99790.06
2018-10-18T10:04:15.600Z,99788.58
2018-10-18T10:06:44.389Z,99797.19
2018-10-18T10:09:13.025Z,99795.55
2018-10-18T10:11:42.205Z,99796.51
2018-10-18T10:14:10.858Z,99800.73
2018-10-18T10:16:39.585Z,99799.00
2018-10-18T10:19:08.357Z,99795.68
2018-10-18T10:21:37.003Z,99797.72
2018-10-18T10:24:05.874Z,99787.47
2018-10-18T10:26:34.529Z,99786.30
2018-10-18T10:29:03.271Z,99788.05
2018-10-18T10:31:31.946Z,99780.27
2018-10-18T10:34:00.532Z,99778.13
2018-10-18T10:36:29.205Z,99771.75
2018-10-18T10:38:57.960Z,99767.34
2018-10-18T10:41:26.606Z,99764.96
2018-10-18T10:43:55.311Z,99756.09
2018-10-18T10:46:24.052Z,99754.64
2018-10-18T10:48:52.779Z,99757.53
2018-10-18T10:51:21.428Z,99745.60
2018-10-18T10:53:50.144Z,99749.64
2018-10-18T10:56:18.820Z,99748.15
2018-10-18T10:58:47.601Z,99750.22
2018-10-18T11:01:23.911Z,99750.31
2018-10-18T11:03:54.015Z,99752.08
2018-10-18T11:06:23.085Z,99754.97
2018-10-18T11:08:51.825Z,99748.11
2018-10-18T11:11:21.249Z,99742.89
2018-10-18T11:13:50.249Z,99751.67
2018-10-18T11:16:18.861Z,99749.69
2018-10-18T11:18:47.738Z,99749.20
2018-10-18T11:21:17.551Z,99747.55
2018-10-18T11:23:46.317Z,99738.64
2018-10-18T11:26:15.277Z,99738.41
2018-10-18T11:28:43.964Z,99734.14
2018-10-18T11:31:13.233Z,99731.63
2018-10-18T11:33:41.972Z,99733.46
2018-10-18T11:36:11.147Z,99733.93
2018-10-18T11:38:39.960Z,99732.72
2018-10-18T11:41:08.724Z,99730.98
2018-10-18T11:43:41.674Z,99727.27
2018-10-18T11:46:10.432Z,99725.55
2018-10-18T11:48:39.104Z,99732.20
2018-10-18T11:51:07.913Z,99725.14
2018-10-18T11:53:42.708Z,99721.64
2018-10-18T11:56:11.787Z,99715.11
2018-10-18T11:58:44.017Z,99717.79
2018-10-18T12:01:15.713Z,99718.72
2018-10-18T12:03:44.372Z,99714.28
2018-10-18T12:06:17.455Z,99707.45
2018-10-18T12:08:47.952Z,99699.14
2018-10-18T12:11:16.800Z,99709.16
2018-10-18T12:13:49.361Z,99703.29
2018-10-18T12:16:21.197Z,99699.89
2018-10-18T12:18:52.282Z,99702.20
2018-10-18T12:21:27.165Z,99696.84
2018-10-18T12:23:55.862Z,99697.09
2018-10-18T12:26:31.642Z,99698.83
2018-10-18T12:29:01.712Z,99689.16
2018-10-18T12:31:30.293Z,99691.58
2018-10-18T12:33:59.642Z,99692.33
2018-10-18T12:36:29.411Z,99683.36
2018-10-18T12:38:58.354Z,99685.26
2018-10-18T12:41:31.903Z,99687.33
2018-10-18T12:44:04.616Z,99683.18
2018-10-18T12:46:36.449Z,99679.21
2018-10-18T12:49:11.103Z,99682.02
2018-10-18T12:51:46.958Z,99674.16
2018-10-18T12:54:17.083Z,99673.56
2018-10-18T12:56:47.404Z,99674.77
2018-10-18T12:59:17.192Z,99673.20
2018-10-18T13:01:45.912Z,99674.27
2018-10-18T13:04:18.900Z,99673.63
2018-10-18T13:06:52.306Z,99673.48
2018-10-18T13:09:24.164Z,99670.19
2018-10-18T13:11:58.703Z,99670.03
2018-10-18T13:14:32.172Z,99664.25
2018-10-18T13:17:03.097Z,99665.95
2018-10-18T13:19:33.511Z,99658.55
2018-10-18T13:22:02.825Z,99663.72
2018-10-18T13:24:38.322Z,99668.55
2018-10-18T13:27:09.918Z,99664.11
2018-10-18T13:29:39.727Z,99666.80
2018-10-18T13:32:14.235Z,99664.82
2018-10-18T13:34:45.672Z,99645.35
2018-10-18T13:37:18.293Z,99672.89
2018-10-18T13:39:50.616Z,99670.98
2018-10-18T13:42:22.706Z,99667.37
2018-10-18T13:44:51.321Z,99674.69
2018-10-18T13:47:24.883Z,99667.34
2018-10-18T13:49:56.223Z,99666.03
2018-10-18T13:52:32.654Z,99666.98
2018-10-18T13:55:02.515Z,99671.11
2018-10-18T13:57:36.842Z,99662.73
2018-10-18T14:00:27.800Z,99666.97
2018-10-18T14:03:00.165Z,99669.27
2018-10-18T14:05:40.808Z,99672.45
2018-10-18T14:08:15.844Z,99672.97
2018-10-18T14:10:50.388Z,99670.83
2018-10-18T14:13:21.781Z,99665.94
2018-10-18T14:15:52.596Z,99670.35
2018-10-18T14:18:31.866Z,99660.14
2018-10-18T14:23:40.063Z,99657.69
2018-10-18T14:26:15.223Z,99656.70
2018-10-18T14:28:48.479Z,99653.00
2018-10-18T14:31:23.585Z,99657.31
2018-10-18T14:33:57.915Z,99658.42
2018-10-18T14:36:37.224Z,99662.12
2018-10-18T14:39:20.331Z,99660.81
2018-10-18T14:41:55.115Z,99666.37
2018-10-18T14:44:29.908Z,99670.27
2018-10-18T14:47:11.271Z,99671.48
2018-10-18T14:49:44.193Z,99673.42
2018-10-18T14:52:13.638Z,99674.83
2018-10-18T14:54:42.326Z,99673.57
2018-10-18T14:57:14.727Z,99682.20
2018-10-18T14:59:43.598Z,99690.42
2018-10-18T15:02:15.245Z,99684.55
2018-10-18T15:04:46.573Z,99686.80
2018-10-18T15:07:15.808Z,99695.09
2018-10-18T15:09:44.852Z,99689.74
2018-10-18T15:12:13.820Z,99691.80
2018-10-18T15:14:42.802Z,99695.61
2018-10-18T15:17:11.920Z,99696.47
2018-10-18T15:19:41.129Z,99694.04
2018-10-18T15:22:10.710Z,99689.77
2018-10-18T15:24:39.853Z,99683.66
2018-10-18T15:27:16.256Z,99690.86
2018-10-18T15:29:50.618Z,99696.47
2018-10-18T15:32:19.375Z,99701.45
2018-10-18T15:34:50.447Z,99707.58
2018-10-18T15:37:19.117Z,99711.56
2018-10-18T15:39:49.413Z,99706.21
2018-10-18T15:42:18.141Z,99705.67
2018-10-18T15:44:47.028Z,99708.88
2018-10-18T15:47:19.221Z,99719.33
2018-10-18T15:49:50.771Z,99720.07
2018-10-18T15:52:23.590Z,99720.26
2018-10-18T15:55:00.171Z,99721.14
2018-10-18T15:57:34.990Z,99724.09
2018-10-18T16:00:11.364Z,99725.16
2018-10-18T16:02:46.916Z,99738.83
2018-10-18T16:05:23.397Z,99738.44
2018-10-18T16:08:00.015Z,99735.30
2018-10-18T16:10:35.821Z,99743.38
2018-10-18T16:13:11.900Z,99747.77
2018-10-18T16:15:46.676Z,99746.34
2018-10-18T16:18:23.228Z,99751.30
2018-10-18T16:21:01.032Z,99746.73
2018-10-18T16:23:38.751Z,99749.64
2018-10-18T16:26:25.005Z,99751.94
2018-10-18T16:29:14.441Z,99756.05
2018-10-18T16:31:46.172Z,99756.16
2018-10-18T16:34:14.892Z,99764.95
2018-10-18T16:36:43.894Z,99769.31
2018-10-18T16:39:13.848Z,99773.75
2018-10-18T16:41:42.808Z,99780.02
2018-10-18T16:44:11.539Z,99775.91
2018-10-18T16:46:40.205Z,99776.30
2018-10-18T16:49:08.957Z,99779.30
2018-10-18T16:51:37.853Z,99777.83
2018-10-18T16:54:10.004Z,99780.22
2018-10-18T16:56:40.285Z,99779.16
2018-10-18T16:59:08.893Z,99782.86
2018-10-18T17:01:41.184Z,99784.42
2018-10-18T17:04:11.647Z,99784.30
2018-10-18T17:06:41.636Z,99788.44
2018-10-18T17:09:15.338Z,99787.11
2018-10-18T17:11:46.749Z,99784.58
2018-10-18T17:14:18.904Z,99781.44
2018-10-18T17:16:54.306Z,99783.62
2018-10-18T17:22:04.436Z,99787.89
2018-10-18T17:24:40.597Z,99795.11
2018-10-18T17:27:13.237Z,99791.98
2018-10-18T17:29:47.502Z,99796.49
2018-10-18T17:32:17.095Z,99796.12
2018-10-18T17:34:45.989Z,99797.03
2018-10-18T17:37:14.538Z,99797.44
2018-10-18T17:39:43.121Z,99798.52
2018-10-18T17:42:11.764Z,99799.80
2018-10-18T17:44:40.273Z,99795.09
2018-10-18T17:47:08.867Z,99797.08
2018-10-18T17:49:37.425Z,99802.98
2018-10-18T17:52:06.260Z,99799.11
2018-10-18T17:54:34.773Z,99801.24
2018-10-18T17:57:03.340Z,99802.86
2018-10-18T17:59:33.299Z,99809.28
2018-10-18T18:02:01.876Z,99810.37
2018-10-18T18:04:39.009Z,99806.97
2018-10-18T18:07:12.284Z,99811.53
2018-10-18T18:09:40.890Z,99812.47
2018-10-18T18:12:09.493Z,99813.17
2018-10-18T18:14:42.915Z,99813.36
2018-10-18T18:17:12.556Z,99816.59
2018-10-18T18:19:44.128Z,99815.63
2018-10-18T18:22:22.164Z,99820.99
2018-10-18T18:24:51.051Z,99817.13
2018-10-18T18:27:20.085Z,99827.70
2018-10-18T18:29:48.875Z,99823.04
2018-10-18T18:32:19.162Z,99835.64
2018-10-18T18:34:47.777Z,99835.41
2018-10-18T18:37:18.213Z,99840.83
2018-10-18T18:39:47.165Z,99840.17
2018-10-18T18:42:16.090Z,99839.08
2018-10-18T18:44:44.748Z,99839.89
2018-10-18T18:47:14.475Z,99843.33
2018-10-18T18:49:43.413Z,99838.53
2018-10-18T18:52:13.825Z,99845.80
2018-10-18T18:54:44.073Z,99848.72
2018-10-18T18:57:19.576Z,99853.04
2018-10-18T18:59:53.337Z,99849.06
2018-10-18T19:02:29.018Z,99854.22
2018-10-18T19:05:03.204Z,99853.31
2018-10-18T19:07:32.473Z,99866.76
2018-10-18T19:10:01.036Z,99862.61
2018-10-18T19:12:34.237Z,99859.21
2018-10-18T19:15:03.179Z,99852.05
2018-10-18T19:17:36.475Z,99853.02
2018-10-18T19:20:05.688Z,99860.11
2018-10-18T19:22:39.761Z,99853.69
2018-10-18T19:25:10.394Z,99847.84
2018-10-18T19:27:41.033Z,99847.89
2018-10-18T19:30:12.503Z,99844.45
2018-10-18T19:32:41.206Z,99841.72
2018-10-18T19:35:09.781Z,99845.02
2018-10-18T19:37:38.379Z,99850.75
2018-10-18T19:40:07.819Z,99855.08
2018-10-18T19:42:36.388Z,99854.13
2018-10-18T19:45:05.541Z,99858.80
2018-10-18T19:47:34.109Z,99858.84
2018-10-18T19:50:02.706Z,99859.13
2018-10-18T19:52:31.376Z,99854.38
2018-10-18T19:54:59.846Z,99862.27
2018-10-18T19:57:28.533Z,99859.45
2018-10-18T19:59:57.105Z,99859.67
2018-10-18T20:02:26.017Z,99867.58
2018-10-18T20:04:54.592Z,99867.88
2018-10-18T20:07:23.224Z,99871.48
2018-10-18T20:09:51.768Z,99874.52
2018-10-18T20:12:20.367Z,99867.02
2018-10-18T20:14:48.913Z,99871.63
2018-10-18T20:17:17.480Z,99870.14
2018-10-18T20:19:46.039Z,99868.90
2018-10-18T20:22:14.629Z,99867.75
2018-10-18T20:24:43.403Z,99868.98
2018-10-18T20:27:12.156Z,99868.98
2018-10-18T20:29:40.695Z,99867.36
2018-10-18T20:32:09.336Z,99867.67
2018-10-18T20:34:37.886Z,99871.81
2018-10-18T20:37:06.876Z,99873.05
2018-10-18T20:39:35.415Z,99875.66
2018-10-18T20:42:04.012Z,99870.73
2018-10-18T20:44:32.549Z,99871.84
2018-10-18T20:47:01.124Z,99875.92
2018-10-18T20:49:29.677Z,99886.20
2018-10-18T20:51:58.249Z,99892.22
2018-10-18T20:54:26.790Z,99895.71
2018-10-18T20:56:55.413Z,99896.39
2018-10-18T20:59:23.937Z,99894.31
2018-10-18T21:01:52.517Z,99895.22
2018-10-18T21:04:21.076Z,99890.77
2018-10-18T21:06:49.639Z,99896.55
2018-10-18T21:09:18.426Z,99892.81
2018-10-18T21:11:47.018Z,99893.77
2018-10-18T21:14:15.569Z,99897.28
2018-10-18T21:16:44.205Z,99895.25
2018-10-18T21:19:12.800Z,99890.26
2018-10-18T21:21:41.406Z,99889.73
2018-10-18T21:24:09.950Z,99883.17
2018-10-18T21:26:38.493Z,99885.10
2018-10-18T21:29:08.820Z,99890.98
2018-10-18T21:31:38.102Z,99887.06
2018-10-18T21:34:09.154Z,99884.84
2018-10-18T21:36:38.501Z,99885.28
2018-10-18T21:39:08.313Z,99883.81
2018-10-18T21:41:38.430Z,99885.13
2018-10-18T21:44:08.731Z,99885.39
2018-10-18T21:46:38.976Z,99890.38
2018-10-18T21:49:07.606Z,99895.44
2018-10-18T21:51:37.728Z,99899.09
2018-10-18T21:54:08.309Z,99890.58
2018-10-18T21:56:42.914Z,99891.05
2018-10-18T21:59:17.413Z,99884.70
2018-10-18T22:01:52.250Z,99885.13
2018-10-18T22:04:25.463Z,99884.41
2018-10-18T22:06:57.287Z,99882.59
2018-10-18T22:09:29.598Z,99881.63
2018-10-18T22:12:03.331Z,99886.44
2018-10-18T22:14:39.842Z,99880.64
2018-10-18T22:17:08.506Z,99885.59
2018-10-18T22:19:42.222Z,99878.15
2018-10-18T22:22:16.313Z,99885.30
2018-10-18T22:24:50.558Z,99881.91
2018-10-18T22:27:26.803Z,99870.81
2018-10-18T22:30:00.951Z,99870.95
2018-10-18T22:32:29.665Z,99877.22
2018-10-18T22:35:00.703Z,99869.94
2018-10-18T22:37:34.443Z,99871.79
2018-10-18T22:40:03.280Z,99877.10
2018-10-18T22:42:37.210Z,99874.19
2018-10-18T22:45:07.767Z,99875.54
2018-10-18T22:47:41.418Z,99886.72
2018-10-18T22:50:15.088Z,99885.84
2018-10-18T22:52:49.030Z,99891.64
2018-10-18T22:55:23.345Z,99889.23
2018-10-18T22:57:57.025Z,99884.00
2018-10-18T23:00:25.813Z,99887.11
2018-10-18T23:02:54.369Z,99888.86
2018-10-18T23:05:29.574Z,99886.92
2018-10-18T23:07:58.121Z,99888.33
2018-10-18T23:10:26.685Z,99885.45
2018-10-18T23:12:55.209Z,99882.84
2018-10-18T23:15:23.790Z,99892.81
2018-10-18T23:17:52.336Z,99889.85
2018-10-18T23:20:20.941Z,99885.61
2018-10-18T23:22:49.499Z,99886.13
2018-10-18T23:25:18.072Z,99887.58
2018-10-18T23:27:46.621Z,99890.42
2018-10-18T23:30:15.185Z,99887.92
2018-10-18T23:32:43.725Z,99890.22
2018-10-18T23:35:12.323Z,99890.06
2018-10-18T23:37:40.848Z,99890.34
2018-10-18T23:40:09.456Z,99888.33
2018-10-18T23:42:38.005Z,99890.45
2018-10-18T23:45:07.716Z,99893.31
2018-10-18T23:47:36.272Z,99893.98
2018-10-18T23:50:05.058Z,99890.75
2018-10-18T23:52:33.596Z,99888.89
2018-10-18T23:55:05.188Z,99891.72
2018-10-18T23:57:34.863Z,99893.55
